createdAt,value
2018-05-15T00:01:39.044Z,69.30
2018-05-15T00:04:05.012Z,68.80
2018-05-15T00:06:30.995Z,70.10
2018-05-15T00:08:57.017Z,70.60
2018-05-15T00:11:23.023Z,71.00
2018-05-15T00:13:49.212Z,71.20
2018-05-15T00:16:15.190Z,72.60
2018-05-15T00:18:41.356Z,72.70
2018-05-15T00:21:08.647Z,73.60
2018-05-15T00:23:34.631Z,74.40
2018-05-15T00:26:01.391Z,75.50
2018-05-15T00:28:27.361Z,75.50
2018-05-15T00:30:53.382Z,76.80
2018-05-15T00:33:19.375Z,76.00
2018-05-15T00:35:45.347Z,76.50
2018-05-15T00:38:12.126Z,79.20
2018-05-15T00:40:38.075Z,78.40
2018-05-15T00:43:04.031Z,80.10
2018-05-15T00:45:30.019Z,78.50
2018-05-15T00:47:56.884Z,79.40
2018-05-15T00:50:23.107Z,79.50
2018-05-15T00:52:49.144Z,81.60
2018-05-15T00:55:28.683Z,80.70
2018-05-15T00:57:56.140Z,78.90
2018-05-15T01:00:22.130Z,78.80
2018-05-15T01:02:48.763Z,79.90
2018-05-15T01:05:15.655Z,79.00
2018-05-15T01:07:41.694Z,79.80
2018-05-15T01:10:07.647Z,77.40
2018-05-15T01:12:33.587Z,78.50
2018-05-15T01:14:59.572Z,80.00
2018-05-15T01:17:26.267Z,82.40
2018-05-15T01:19:52.258Z,82.20
2018-05-15T01:22:18.966Z,80.50
2018-05-15T01:24:44.948Z,80.40
2018-05-15T01:27:12.733Z,82.70
2018-05-15T01:29:39.688Z,83.40
2018-05-15T01:32:06.545Z,85.50
2018-05-15T01:34:33.315Z,85.60
2018-05-15T01:36:59.267Z,85.50
2018-05-15T01:39:25.233Z,86.40
2018-05-15T01:41:51.380Z,88.20
2018-05-15T01:44:17.342Z,87.60
2018-05-15T01:46:44.488Z,87.70
2018-05-15T01:49:10.463Z,87.70
2018-05-15T01:51:36.515Z,89.50
2018-05-15T01:54:02.494Z,89.00
2018-05-15T01:56:28.477Z,87.60
2018-05-15T01:58:54.452Z,89.40
2018-05-15T02:01:20.531Z,88.60
2018-05-15T02:03:46.573Z,91.10
2018-05-15T02:06:13.317Z,92.60
2018-05-15T02:08:40.004Z,91.60
2018-05-15T02:11:06.032Z,91.50
2018-05-15T02:13:32.167Z,91.10
2018-05-15T02:15:58.200Z,91.00
2018-05-15T02:18:24.236Z,91.60
2018-05-15T02:20:50.256Z,91.80
2018-05-15T02:23:17.711Z,92.20
2018-05-15T02:25:43.696Z,92.30
2018-05-15T02:28:09.675Z,92.80
2018-05-15T02:30:35.632Z,92.10
2018-05-15T02:33:01.619Z,93.60
2018-05-15T02:35:28.202Z,92.60
2018-05-15T02:37:55.258Z,93.00
2018-05-15T02:40:21.261Z,93.00
2018-05-15T02:42:47.432Z,91.80
2018-05-15T02:45:13.414Z,92.30
2018-05-15T02:47:39.387Z,93.30
2018-05-15T02:50:05.403Z,93.40
2018-05-15T02:55:04.175Z,93.80
2018-05-15T02:57:30.152Z,93.80
2018-05-15T02:59:56.111Z,92.30
2018-05-15T03:02:22.186Z,92.70
2018-05-15T03:04:48.135Z,93.40
2018-05-15T03:07:14.107Z,94.00
2018-05-15T03:09:40.080Z,94.00
2018-05-15T03:12:06.050Z,93.20
2018-05-15T03:14:32.766Z,95.60
2018-05-15T03:16:58.733Z,95.50
2018-05-15T03:19:25.625Z,95.60
2018-05-15T03:21:51.566Z,95.60
2018-05-15T03:24:17.523Z,93.90
2018-05-15T03:26:43.539Z,93.80
2018-05-15T03:29:09.600Z,94.80
2018-05-15T03:31:35.543Z,94.50
2018-05-15T03:34:01.520Z,94.40
2018-05-15T03:36:27.487Z,94.60
2018-05-15T03:38:53.551Z,96.00
2018-05-15T03:41:19.531Z,96.30
2018-05-15T03:43:46.412Z,98.70
2018-05-15T03:46:12.772Z,98.70
2018-05-15T03:48:38.723Z,98.40
2018-05-15T03:51:05.625Z,99.90
2018-05-15T03:53:32.331Z,97.10
2018-05-15T03:56:05.200Z,97.30
2018-05-15T03:58:31.167Z,98.80
2018-05-15T04:01:09.546Z,99.40
2018-05-15T04:03:48.011Z,99.10
2018-05-15T04:09:18.271Z,98.20
2018-05-15T04:11:44.255Z,97.80
2018-05-15T04:14:10.325Z,99.60
2018-05-15T04:16:36.334Z,99.90
2018-05-15T04:19:03.022Z,99.80
2018-05-15T04:21:29.367Z,99.80
2018-05-15T04:23:55.821Z,98.80
2018-05-15T04:26:22.090Z,98.90
2018-05-15T04:28:48.045Z,99.00
2018-05-15T04:31:14.642Z,99.90
2018-05-15T04:33:40.646Z,99.90
2018-05-15T04:36:06.631Z,97.60
2018-05-15T04:38:32.780Z,98.00
2018-05-15T04:40:58.894Z,96.20
2018-05-15T04:43:24.877Z,94.20
2018-05-15T04:45:50.822Z,94.20
2018-05-15T04:48:16.814Z,94.00
2018-05-15T04:50:43.152Z,95.70
2018-05-15T04:53:09.167Z,96.60
2018-05-15T04:55:35.991Z,97.50
2018-05-15T04:58:01.883Z,97.40
2018-05-15T05:00:28.618Z,97.40
2018-05-15T05:02:54.659Z,97.40
2018-05-15T05:05:20.652Z,98.10
2018-05-15T05:07:47.347Z,98.20
2018-05-15T05:10:13.338Z,98.20
2018-05-15T05:12:39.622Z,98.10
2018-05-15T05:15:06.014Z,97.70
2018-05-15T05:17:31.967Z,97.40
2018-05-15T05:19:57.910Z,95.70
2018-05-15T05:22:23.972Z,93.70
2018-05-15T05:24:49.922Z,93.10
2018-05-15T05:27:15.933Z,94.20
2018-05-15T05:29:42.551Z,95.80
2018-05-15T05:32:08.592Z,96.50
2018-05-15T05:34:35.334Z,94.30
2018-05-15T05:37:01.329Z,94.20
2018-05-15T05:39:27.320Z,92.40
2018-05-15T05:41:53.319Z,92.20
2018-05-15T05:44:19.310Z,91.90
2018-05-15T05:46:46.037Z,91.40
2018-05-15T05:49:12.015Z,91.30
2018-05-15T05:51:38.719Z,90.10
2018-05-15T05:54:04.714Z,90.10
2018-05-15T05:56:30.667Z,89.80
2018-05-15T05:58:56.694Z,90.30
2018-05-15T06:01:22.681Z,90.90
2018-05-15T06:03:48.752Z,89.50
2018-05-15T06:06:15.468Z,90.20
2018-05-15T06:08:41.479Z,90.20
2018-05-15T06:11:07.800Z,91.70
2018-05-15T06:13:33.795Z,90.30
2018-05-15T06:16:00.216Z,90.90
2018-05-15T06:18:26.199Z,92.50
2018-05-15T06:20:52.999Z,92.70
2018-05-15T06:23:19.018Z,92.70
2018-05-15T06:25:45.025Z,91.40
2018-05-15T06:28:11.731Z,91.20
2018-05-15T06:30:37.707Z,91.30
2018-05-15T06:33:03.678Z,92.10
2018-05-15T06:35:29.916Z,90.80
2018-05-15T06:37:55.878Z,87.80
2018-05-15T06:40:21.931Z,87.90
2018-05-15T06:42:47.895Z,89.30
2018-05-15T06:45:14.638Z,86.00
2018-05-15T06:47:40.595Z,85.20
2018-05-15T06:50:08.135Z,83.90
2018-05-15T06:52:34.085Z,83.70
2018-05-15T06:55:00.087Z,86.40
2018-05-15T06:57:26.059Z,86.20
2018-05-15T06:59:52.782Z,89.70
2018-05-15T07:02:19.735Z,88.90
2018-05-15T07:04:45.908Z,88.80
2018-05-15T07:07:11.899Z,88.20
2018-05-15T07:09:37.849Z,88.10
2018-05-15T07:12:03.783Z,87.50
2018-05-15T07:14:31.177Z,88.40
2018-05-15T07:16:57.118Z,85.20
2018-05-15T07:19:23.101Z,86.60
2018-05-15T07:21:49.098Z,84.50
2018-05-15T07:24:15.798Z,86.50
2018-05-15T07:26:41.787Z,85.70
2018-05-15T07:29:08.820Z,84.00
2018-05-15T07:31:34.835Z,83.20
2018-05-15T07:34:00.815Z,82.30
2018-05-15T07:36:26.879Z,82.00
2018-05-15T07:38:54.236Z,80.90
2018-05-15T07:41:20.284Z,81.00
2018-05-15T07:43:47.027Z,77.50
2018-05-15T07:46:13.722Z,77.70
2018-05-15T07:48:39.722Z,77.60
2018-05-15T07:51:05.720Z,74.20
2018-05-15T07:53:31.720Z,74.30
2018-05-15T07:55:57.690Z,76.20
2018-05-15T07:58:23.675Z,69.10
2018-05-15T08:00:49.693Z,66.40
2018-05-15T08:03:16.378Z,65.40
2018-05-15T08:05:42.362Z,65.10
2018-05-15T08:08:09.070Z,68.20
2018-05-15T08:10:35.142Z,68.20
2018-05-15T08:13:01.125Z,68.60
2018-05-15T08:15:27.151Z,69.40
2018-05-15T08:17:53.895Z,69.20
2018-05-15T08:20:20.606Z,65.70
2018-05-15T08:22:46.591Z,65.70
2018-05-15T08:25:13.319Z,67.40
2018-05-15T08:27:39.505Z,67.40
2018-05-15T08:30:05.458Z,66.00
2018-05-15T08:32:31.459Z,65.50
2018-05-15T08:34:57.419Z,65.30
2018-05-15T08:37:23.379Z,63.60
2018-05-15T08:39:49.354Z,67.20
2018-05-15T08:42:15.319Z,63.30
2018-05-15T08:44:41.303Z,63.60
2018-05-15T08:47:07.319Z,63.00
2018-05-15T08:49:33.295Z,61.90
2018-05-15T08:51:59.282Z,63.60
2018-05-15T08:54:25.306Z,57.10
2018-05-15T08:56:52.012Z,60.10
2018-05-15T08:59:17.955Z,60.10
2018-05-15T09:01:43.963Z,62.40
2018-05-15T09:04:09.934Z,59.20
2018-05-15T09:06:36.717Z,55.50
2018-05-15T09:09:02.760Z,55.50
2018-05-15T09:11:28.726Z,55.80
2018-05-15T09:13:54.750Z,54.60
2018-05-15T09:16:27.747Z,54.30
2018-05-15T09:18:53.740Z,55.20
2018-05-15T09:21:20.455Z,57.00
2018-05-15T09:23:46.410Z,57.00
2018-05-15T09:26:12.388Z,55.70
2018-05-15T09:28:38.338Z,53.50
2018-05-15T09:31:04.311Z,53.60
2018-05-15T09:33:30.299Z,52.90
2018-05-15T09:35:56.309Z,53.20
2018-05-15T09:38:22.998Z,53.10
2018-05-15T09:40:49.003Z,53.10
2018-05-15T09:43:28.199Z,52.30
2018-05-15T09:45:54.168Z,52.20
2018-05-15T09:48:20.182Z,54.60
2018-05-15T09:50:46.186Z,54.00
2018-05-15T09:53:12.167Z,53.60
2018-05-15T09:55:38.116Z,52.60
2018-05-15T09:58:04.086Z,51.70
2018-05-15T10:00:32.847Z,52.80
2018-05-15T10:02:58.882Z,52.60
2018-05-15T10:05:24.826Z,52.60
2018-05-15T10:07:50.801Z,54.20
2018-05-15T10:10:17.237Z,54.70
2018-05-15T10:12:43.279Z,52.90
2018-05-15T10:15:09.463Z,53.40
2018-05-15T10:17:35.408Z,53.40
2018-05-15T10:20:01.411Z,53.80
2018-05-15T10:22:27.379Z,54.00
2018-05-15T10:24:53.358Z,54.20
2018-05-15T10:27:19.348Z,55.10
2018-05-15T10:29:45.315Z,54.70
2018-05-15T10:32:11.339Z,56.10
2018-05-15T10:34:37.339Z,58.60
2018-05-15T10:37:03.303Z,59.10
2018-05-15T10:39:29.281Z,58.20
2018-05-15T10:41:55.285Z,58.20
2018-05-15T10:44:21.228Z,61.50
2018-05-15T10:46:47.950Z,66.90
2018-05-15T10:49:13.955Z,67.10
2018-05-15T10:51:39.916Z,72.40
2018-05-15T10:54:05.859Z,68.10
2018-05-15T10:56:31.846Z,74.70
2018-05-15T10:58:57.783Z,83.50
2018-05-15T11:01:23.772Z,93.60
2018-05-15T11:03:49.726Z,99.90
2018-05-15T11:06:15.753Z,99.90
2018-05-15T11:08:41.687Z,99.90
2018-05-15T11:11:07.687Z,99.90
2018-05-15T11:13:33.638Z,99.90
2018-05-15T11:15:59.616Z,99.90
2018-05-15T11:18:47.135Z,99.90
2018-05-15T11:21:25.473Z,99.90
2018-05-15T11:26:51.463Z,99.90
2018-05-15T11:29:18.187Z,99.90
2018-05-15T11:31:44.135Z,99.90
2018-05-15T11:34:10.871Z,99.90
2018-05-15T11:36:37.047Z,99.90
2018-05-15T11:39:04.732Z,96.10
2018-05-15T11:41:30.712Z,96.10
2018-05-15T11:43:56.719Z,97.20
2018-05-15T11:46:22.711Z,96.20
2018-05-15T11:48:49.079Z,96.40
2018-05-15T11:51:16.040Z,99.80
2018-05-15T11:53:41.387Z,99.90
2018-05-15T11:56:07.397Z,97.80
2018-05-15T11:58:33.416Z,97.70
2018-05-15T12:01:00.143Z,99.90
2018-05-15T12:03:26.081Z,99.90
2018-05-15T12:05:52.107Z,99.90
2018-05-15T12:08:18.169Z,99.90
2018-05-15T12:10:44.077Z,99.90
2018-05-15T12:13:10.047Z,99.90
2018-05-15T12:15:36.007Z,99.90
2018-05-15T12:18:02.030Z,99.90
2018-05-15T12:20:28.766Z,99.90
2018-05-15T12:22:54.793Z,99.90
2018-05-15T12:25:20.849Z,99.90
2018-05-15T12:27:46.870Z,95.20
2018-05-15T12:30:13.620Z,94.60
2018-05-15T12:32:39.571Z,94.30
2018-05-15T12:35:05.554Z,90.20
2018-05-15T12:37:31.524Z,86.10
2018-05-15T12:39:57.474Z,80.50
2018-05-15T12:42:23.477Z,82.10
2018-05-15T12:44:49.471Z,86.90
2018-05-15T12:47:16.226Z,80.80
2018-05-15T12:49:42.995Z,80.50
2018-05-15T12:52:08.987Z,80.40
2018-05-15T12:54:34.938Z,78.40
2018-05-15T12:57:01.696Z,79.20
2018-05-15T12:59:35.355Z,77.90
2018-05-15T13:02:01.385Z,77.00
2018-05-15T13:04:27.397Z,77.20
2018-05-15T13:06:54.078Z,83.60
2018-05-15T13:09:20.059Z,83.50
2018-05-15T13:11:46.075Z,85.20
2018-05-15T13:14:12.053Z,81.60
2018-05-15T13:16:38.750Z,80.00
2018-05-15T13:19:04.725Z,80.10
2018-05-15T13:21:31.639Z,79.20
2018-05-15T13:23:57.643Z,82.00
2018-05-15T13:26:24.339Z,79.00
2018-05-15T13:28:50.295Z,78.90
2018-05-15T13:31:16.324Z,68.70
2018-05-15T13:33:42.307Z,70.20
2018-05-15T13:36:08.274Z,75.20
2018-05-15T13:38:34.295Z,70.70
2018-05-15T13:41:00.318Z,68.20
2018-05-15T13:43:26.199Z,67.10
2018-05-15T13:45:52.172Z,69.20
2018-05-15T13:50:43.161Z,65.10
2018-05-15T13:53:09.143Z,65.20
2018-05-15T13:55:35.089Z,75.70
2018-05-15T13:58:01.806Z,80.30
2018-05-15T14:00:27.841Z,80.30
2018-05-15T14:02:53.857Z,80.10
2018-05-15T14:05:19.815Z,85.70
2018-05-15T14:07:45.807Z,85.40
2018-05-15T14:10:11.783Z,85.80
2018-05-15T14:12:37.791Z,86.60
2018-05-15T14:15:03.763Z,76.10
2018-05-15T14:17:29.707Z,76.10
2018-05-15T14:19:55.863Z,81.50
2018-05-15T14:22:22.575Z,74.60
2018-05-15T14:24:48.748Z,73.80
2018-05-15T14:27:15.435Z,81.40
2018-05-15T14:29:41.403Z,85.30
2018-05-15T14:32:07.383Z,89.10
2018-05-15T14:34:33.342Z,92.70
2018-05-15T14:36:59.487Z,94.00
2018-05-15T14:39:25.579Z,94.60
2018-05-15T14:42:03.991Z,92.30
2018-05-15T14:44:29.938Z,93.50
2018-05-15T14:46:55.985Z,87.30
2018-05-15T14:49:21.947Z,90.20
2018-05-15T14:51:48.659Z,90.80
2018-05-15T14:54:14.626Z,90.80
2018-05-15T14:56:41.359Z,90.80
2018-05-15T14:59:07.424Z,90.70
2018-05-15T15:01:33.434Z,92.70
2018-05-15T15:03:59.378Z,93.60
2018-05-15T15:06:25.363Z,92.10
2018-05-15T15:08:51.342Z,93.60
2018-05-15T15:11:18.799Z,97.20
2018-05-15T15:13:44.751Z,97.20
2018-05-15T15:16:10.727Z,97.80
2018-05-15T15:18:36.696Z,99.90
2018-05-15T15:21:02.681Z,98.10
2018-05-15T15:23:29.674Z,94.90
2018-05-15T15:25:55.630Z,94.90
2018-05-15T15:28:21.644Z,96.00
2018-05-15T15:30:47.574Z,94.80
2018-05-15T15:33:13.543Z,91.90
2018-05-15T15:35:39.478Z,90.30
2018-05-15T15:38:05.486Z,90.90
2018-05-15T15:40:31.441Z,86.10
2018-05-15T15:42:57.418Z,86.90
2018-05-15T15:45:24.181Z,88.10
2018-05-15T15:47:50.955Z,88.00
2018-05-15T15:50:16.974Z,88.00
2018-05-15T15:52:43.635Z,91.20
2018-05-15T15:55:09.615Z,91.20
2018-05-15T15:57:35.557Z,89.20
2018-05-15T16:00:01.526Z,89.20
2018-05-15T16:02:29.146Z,88.50
2018-05-15T16:04:55.111Z,88.60
2018-05-15T16:07:21.082Z,81.20
2018-05-15T16:09:47.854Z,79.40
2018-05-15T16:12:13.755Z,79.40
2018-05-15T16:14:40.431Z,83.70
2018-05-15T16:17:06.443Z,83.50
2018-05-15T16:19:32.379Z,86.30
2018-05-15T16:21:59.122Z,90.40
2018-05-15T16:24:25.123Z,90.40
2018-05-15T16:26:51.198Z,92.80
2018-05-15T16:29:17.068Z,92.80
2018-05-15T16:31:43.580Z,96.00
2018-05-15T16:34:09.558Z,95.20
2018-05-15T16:36:35.511Z,91.50
2018-05-15T16:39:01.497Z,90.10
2018-05-15T16:41:28.210Z,90.60
2018-05-15T16:43:54.179Z,90.60
2018-05-15T16:46:20.160Z,91.10
2018-05-15T16:48:46.175Z,92.40
2018-05-15T16:51:12.208Z,91.50
2018-05-15T16:53:38.927Z,90.50
2018-05-15T16:56:04.902Z,90.60
2018-05-15T16:58:30.847Z,90.00
2018-05-15T17:00:56.827Z,90.40
2018-05-15T17:03:22.799Z,91.70
2018-05-15T17:05:49.514Z,93.20
2018-05-15T17:08:15.836Z,93.20
2018-05-15T17:10:41.718Z,93.10
2018-05-15T17:13:07.712Z,93.70
2018-05-15T17:15:33.654Z,94.40
2018-05-15T17:17:59.635Z,94.30
2018-05-15T17:20:26.371Z,94.40
2018-05-15T17:22:53.184Z,96.00
2018-05-15T17:25:19.145Z,96.00
2018-05-15T17:27:45.114Z,96.80
2018-05-15T17:30:11.790Z,98.50
2018-05-15T17:32:37.962Z,98.50
2018-05-15T17:35:03.903Z,99.00
2018-05-15T17:37:29.887Z,99.90
2018-05-15T17:39:55.874Z,99.90
2018-05-15T17:42:21.879Z,99.90
2018-05-15T17:44:47.822Z,99.90
2018-05-15T17:47:20.900Z,99.90
2018-05-15T17:49:47.602Z,99.90
2018-05-15T17:52:13.591Z,99.90
2018-05-15T17:54:39.587Z,99.90
2018-05-15T17:57:05.603Z,99.90
2018-05-15T17:59:31.676Z,99.90
2018-05-15T18:01:58.314Z,99.90
2018-05-15T18:04:24.267Z,99.90
2018-05-15T18:06:50.996Z,99.90
2018-05-15T18:09:17.004Z,99.90
2018-05-15T18:11:42.986Z,99.90
2018-05-15T18:14:08.991Z,99.90
2018-05-15T18:16:34.931Z,99.90
2018-05-15T18:19:00.930Z,99.90
2018-05-15T18:21:27.005Z,99.90
2018-05-15T18:23:53.672Z,99.90
2018-05-15T18:26:19.977Z,99.90
2018-05-15T18:28:45.927Z,99.90
2018-05-15T18:31:11.899Z,99.90
2018-05-15T18:33:37.938Z,99.90
2018-05-15T18:36:03.928Z,99.90
2018-05-15T18:38:29.923Z,99.90
2018-05-15T18:40:56.706Z,99.90
2018-05-15T18:43:22.697Z,99.90
2018-05-15T18:45:50.179Z,99.90
2018-05-15T18:48:16.153Z,99.90
2018-05-15T18:50:42.131Z,99.90
2018-05-15T18:53:08.118Z,99.90
2018-05-15T18:55:34.088Z,99.90
2018-05-15T18:58:00.052Z,99.90
2018-05-15T19:00:26.068Z,99.90
2018-05-15T19:02:52.106Z,99.90
2018-05-15T19:05:18.062Z,99.90
2018-05-15T19:07:44.978Z,99.90
2018-05-15T19:10:10.992Z,99.90
2018-05-15T19:12:36.987Z,99.90
2018-05-15T19:15:03.196Z,99.90
2018-05-15T19:17:29.154Z,99.90
2018-05-15T19:19:55.243Z,99.90
2018-05-15T19:22:21.388Z,99.90
2018-05-15T19:24:47.326Z,99.90
2018-05-15T19:27:13.352Z,99.90
2018-05-15T19:29:40.793Z,99.90
2018-05-15T19:32:12.856Z,99.90
2018-05-15T19:34:44.919Z,99.90
2018-05-15T19:37:10.886Z,99.90
2018-05-15T19:39:43.061Z,99.90
2018-05-15T19:42:09.048Z,99.90
2018-05-15T19:44:35.065Z,99.90
2018-05-15T19:47:01.795Z,99.90
2018-05-15T19:49:27.784Z,99.90
2018-05-15T19:51:53.877Z,99.90
2018-05-15T19:54:19.762Z,99.90
2018-05-15T19:56:45.750Z,99.90
2018-05-15T19:59:12.497Z,99.90
2018-05-15T20:01:38.457Z,99.90
2018-05-15T20:04:05.399Z,99.90
2018-05-15T20:06:32.131Z,99.90
2018-05-15T20:08:58.147Z,99.90
2018-05-15T20:11:24.941Z,99.90
2018-05-15T20:13:51.690Z,99.90
2018-05-15T20:16:18.400Z,99.90
2018-05-15T20:18:44.379Z,99.90
2018-05-15T20:21:10.592Z,99.90
2018-05-15T20:23:36.563Z,99.90
2018-05-15T20:26:03.371Z,99.90
2018-05-15T20:28:29.335Z,99.90
2018-05-15T20:30:55.347Z,99.90
2018-05-15T20:33:21.518Z,99.90
2018-05-15T20:35:47.490Z,99.90
2018-05-15T20:38:13.491Z,99.90
2018-05-15T20:40:39.531Z,99.90
2018-05-15T20:43:05.474Z,99.90
2018-05-15T20:45:32.190Z,99.90
2018-05-15T20:47:58.163Z,99.90
2018-05-15T20:50:24.916Z,99.90
2018-05-15T20:52:51.743Z,99.90
2018-05-15T20:55:17.722Z,99.90
2018-05-15T20:57:45.481Z,99.90
2018-05-15T21:00:11.433Z,99.90
2018-05-15T21:02:38.219Z,99.90
2018-05-15T21:05:04.204Z,99.90
2018-05-15T21:07:30.950Z,99.90
2018-05-15T21:09:57.138Z,99.90
2018-05-15T21:12:23.571Z,99.90
2018-05-15T21:14:49.536Z,99.90
2018-05-15T21:17:15.531Z,99.90
2018-05-15T21:19:42.279Z,99.90
2018-05-15T21:22:08.966Z,99.90
2018-05-15T21:24:35.901Z,99.90
2018-05-15T21:27:02.620Z,99.90
2018-05-15T21:29:28.607Z,99.90
2018-05-15T21:31:54.639Z,99.90
2018-05-15T21:34:20.654Z,99.90
2018-05-15T21:36:47.407Z,99.90
2018-05-15T21:39:13.323Z,99.90
2018-05-15T21:41:39.515Z,99.90
2018-05-15T21:44:05.460Z,99.90
2018-05-15T21:46:31.426Z,99.90
2018-05-15T21:48:57.466Z,99.90
2018-05-15T21:51:23.504Z,99.90
2018-05-15T21:53:49.498Z,99.90
2018-05-15T21:56:15.487Z,99.90
2018-05-15T21:58:41.473Z,99.90
2018-05-15T22:01:07.442Z,99.90
2018-05-15T22:03:33.399Z,99.90
2018-05-15T22:05:59.396Z,99.90
2018-05-15T22:08:25.439Z,99.90
2018-05-15T22:10:52.305Z,99.90
2018-05-15T22:13:30.707Z,99.90
2018-05-15T22:16:09.355Z,99.90
2018-05-15T22:18:47.795Z,99.90
2018-05-15T22:21:26.377Z,99.90
2018-05-15T22:23:52.979Z,99.90
2018-05-15T22:26:18.964Z,99.90
2018-05-15T22:28:45.817Z,99.90
2018-05-15T22:31:12.507Z,99.90
2018-05-15T22:33:38.519Z,99.90
2018-05-15T22:36:04.487Z,99.90
2018-05-15T22:38:30.474Z,99.90
2018-05-15T22:40:57.226Z,99.90
2018-05-15T22:43:24.030Z,99.90
2018-05-15T22:45:50.183Z,99.90
2018-05-15T22:48:16.137Z,99.90
2018-05-15T22:50:42.111Z,99.90
2018-05-15T22:53:08.049Z,99.90
2018-05-15T22:55:34.105Z,99.90
2018-05-15T22:58:00.069Z,99.90
2018-05-15T23:00:26.063Z,99.90
2018-05-15T23:02:52.082Z,99.90
2018-05-15T23:05:18.078Z,99.90
2018-05-15T23:07:44.232Z,99.90
2018-05-15T23:10:11.001Z,99.90
2018-05-15T23:12:37.835Z,99.90
2018-05-15T23:15:03.853Z,99.90
2018-05-15T23:17:29.807Z,99.90
2018-05-15T23:19:55.828Z,99.90
2018-05-15T23:25:15.971Z,99.90
2018-05-15T23:27:41.923Z,99.90
2018-05-15T23:30:07.886Z,99.90
2018-05-15T23:32:33.867Z,99.90
2018-05-15T23:34:59.822Z,99.90
2018-05-15T23:37:25.854Z,99.90
2018-05-15T23:39:51.802Z,99.90
2018-05-15T23:42:17.766Z,99.90
2018-05-15T23:44:43.746Z,99.90
2018-05-15T23:47:09.739Z,99.90
2018-05-15T23:49:35.706Z,99.90
2018-05-15T23:52:01.711Z,99.90
2018-05-15T23:54:27.731Z,99.90
2018-05-15T23:56:54.447Z,99.90
2018-05-15T23:59:20.426Z,99.90
